sensor_id;sensor_type;location;lat;lon;timestamp;P1;durP1;ratioP1;P2;durP2;ratioP2
11338;SDS011;5724;42.684;23.252;2022-10-12T00:01:11;35.33;;;30.75;;
11338;SDS011;5724;42.684;23.252;2022-10-12T00:03:37;34.33;;;29.70;;
11338;SDS011;5724;42.684;23.252;2022-10-12T00:06:05;33.42;;;29.83;;
11338;SDS011;5724;42.684;23.252;2022-10-12T00:08:33;33.00;;;29.40;;
11338;SDS011;5724;42.684;23.252;2022-10-12T00:10:59;32.88;;;29.35;;
11338;SDS011;5724;42.684;23.252;2022-10-12T00:13:24;33.70;;;30.15;;
11338;SDS011;5724;42.684;23.252;2022-10-12T00:15:51;33.60;;;30.00;;
11338;SDS011;5724;42.684;23.252;2022-10-12T00:18:17;33.67;;;30.00;;
11338;SDS011;5724;42.684;23.252;2022-10-12T00:20:43;32.28;;;28.73;;
11338;SDS011;5724;42.684;23.252;2022-10-12T00:23:08;36.20;;;30.55;;
11338;SDS011;5724;42.684;23.252;2022-10-12T00:25:35;32.97;;;29.45;;
11338;SDS011;5724;42.684;23.252;2022-10-12T00:28:02;33.95;;;29.00;;
11338;SDS011;5724;42.684;23.252;2022-10-12T00:30:27;33.35;;;29.52;;
11338;SDS011;5724;42.684;23.252;2022-10-12T00:32:53;33.03;;;29.55;;
11338;SDS011;5724;42.684;23.252;2022-10-12T00:35:18;33.00;;;29.40;;
11338;SDS011;5724;42.684;23.252;2022-10-12T00:37:44;32.35;;;28.85;;
11338;SDS011;5724;42.684;23.252;2022-10-12T00:40:10;33.60;;;28.67;;
11338;SDS011;5724;42.684;23.252;2022-10-12T00:42:36;34.85;;;29.15;;
11338;SDS011;5724;42.684;23.252;2022-10-12T00:45:01;30.63;;;27.42;;
11338;SDS011;5724;42.684;23.252;2022-10-12T00:47:34;33.63;;;29.98;;
11338;SDS011;5724;42.684;23.252;2022-10-12T00:50:07;35.72;;;28.85;;
11338;SDS011;5724;42.684;23.252;2022-10-12T00:52:41;33.47;;;29.77;;
11338;SDS011;5724;42.684;23.252;2022-10-12T00:55:11;32.50;;;29.00;;
11338;SDS011;5724;42.684;23.252;2022-10-12T00:57:41;32.28;;;28.80;;
11338;SDS011;5724;42.684;23.252;2022-10-12T01:00:08;31.90;;;28.45;;
11338;SDS011;5724;42.684;23.252;2022-10-12T01:02:34;31.90;;;28.50;;
11338;SDS011;5724;42.684;23.252;2022-10-12T01:05:02;33.28;;;29.80;;
11338;SDS011;5724;42.684;23.252;2022-10-12T01:07:29;34.97;;;31.17;;
11338;SDS011;5724;42.684;23.252;2022-10-12T01:09:55;43.50;;;35.78;;
11338;SDS011;5724;42.684;23.252;2022-10-12T01:12:20;40.95;;;33.20;;
11338;SDS011;5724;42.684;23.252;2022-10-12T01:14:47;34.95;;;30.48;;
11338;SDS011;5724;42.684;23.252;2022-10-12T01:20:24;35.50;;;31.73;;
11338;SDS011;5724;42.684;23.252;2022-10-12T01:33:59;38.90;;;31.55;;
11338;SDS011;5724;42.684;23.252;2022-10-12T01:36:41;34.78;;;31.00;;
11338;SDS011;5724;42.684;23.252;2022-10-12T01:39:12;36.58;;;31.38;;
11338;SDS011;5724;42.684;23.252;2022-10-12T01:41:49;35.17;;;31.35;;
11338;SDS011;5724;42.684;23.252;2022-10-12T01:44:20;35.22;;;30.77;;
11338;SDS011;5724;42.684;23.252;2022-10-12T01:46:46;34.53;;;30.67;;
11338;SDS011;5724;42.684;23.252;2022-10-12T01:49:12;36.25;;;31.30;;
11338;SDS011;5724;42.684;23.252;2022-10-12T01:57:24;37.97;;;31.88;;
11338;SDS011;5724;42.684;23.252;2022-10-12T02:02:48;37.00;;;31.58;;
11338;SDS011;5724;42.684;23.252;2022-10-12T02:08:13;40.53;;;33.88;;
11338;SDS011;5724;42.684;23.252;2022-10-12T02:13:28;38.28;;;32.42;;
11338;SDS011;5724;42.684;23.252;2022-10-12T02:15:57;44.05;;;34.22;;
11338;SDS011;5724;42.684;23.252;2022-10-12T02:18:25;45.28;;;34.38;;
11338;SDS011;5724;42.684;23.252;2022-10-12T02:20:53;38.45;;;33.97;;
11338;SDS011;5724;42.684;23.252;2022-10-12T02:23:22;41.70;;;34.08;;
11338;SDS011;5724;42.684;23.252;2022-10-12T02:25:50;43.80;;;33.70;;
11338;SDS011;5724;42.684;23.252;2022-10-12T02:28:17;42.28;;;34.63;;
11338;SDS011;5724;42.684;23.252;2022-10-12T02:30:48;44.05;;;34.80;;
11338;SDS011;5724;42.684;23.252;2022-10-12T02:33:33;42.17;;;33.95;;
11338;SDS011;5724;42.684;23.252;2022-10-12T02:36:18;40.70;;;34.80;;
11338;SDS011;5724;42.684;23.252;2022-10-12T02:38:59;44.65;;;35.05;;
11338;SDS011;5724;42.684;23.252;2022-10-12T02:41:32;41.05;;;34.95;;
11338;SDS011;5724;42.684;23.252;2022-10-12T02:44:03;41.25;;;34.97;;
11338;SDS011;5724;42.684;23.252;2022-10-12T02:46:34;45.83;;;35.40;;
11338;SDS011;5724;42.684;23.252;2022-10-12T02:49:00;40.30;;;34.13;;
11338;SDS011;5724;42.684;23.252;2022-10-12T02:51:27;44.70;;;35.53;;
11338;SDS011;5724;42.684;23.252;2022-10-12T02:53:54;41.40;;;34.28;;
11338;SDS011;5724;42.684;23.252;2022-10-12T02:56:20;43.33;;;35.03;;
11338;SDS011;5724;42.684;23.252;2022-10-12T02:58:46;39.80;;;33.55;;
11338;SDS011;5724;42.684;23.252;2022-10-12T03:01:12;42.17;;;33.92;;
11338;SDS011;5724;42.684;23.252;2022-10-12T03:03:38;43.28;;;35.33;;
11338;SDS011;5724;42.684;23.252;2022-10-12T03:06:05;46.22;;;34.65;;
11338;SDS011;5724;42.684;23.252;2022-10-12T03:08:30;40.33;;;35.03;;
11338;SDS011;5724;42.684;23.252;2022-10-12T03:11:00;42.47;;;35.70;;
11338;SDS011;5724;42.684;23.252;2022-10-12T03:13:29;42.20;;;33.33;;
11338;SDS011;5724;42.684;23.252;2022-10-12T03:16:05;70.28;;;53.85;;
11338;SDS011;5724;42.684;23.252;2022-10-12T03:18:32;42.33;;;35.78;;
11338;SDS011;5724;42.684;23.252;2022-10-12T03:20:58;44.55;;;34.95;;
11338;SDS011;5724;42.684;23.252;2022-10-12T03:23:24;43.25;;;33.60;;
11338;SDS011;5724;42.684;23.252;2022-10-12T03:25:50;41.65;;;34.20;;
11338;SDS011;5724;42.684;23.252;2022-10-12T03:28:16;40.17;;;34.33;;
11338;SDS011;5724;42.684;23.252;2022-10-12T03:30:41;41.92;;;35.22;;
11338;SDS011;5724;42.684;23.252;2022-10-12T03:33:07;43.78;;;35.10;;
11338;SDS011;5724;42.684;23.252;2022-10-12T03:35:33;45.30;;;35.83;;
11338;SDS011;5724;42.684;23.252;2022-10-12T03:37:58;44.38;;;33.80;;
11338;SDS011;5724;42.684;23.252;2022-10-12T03:40:24;37.60;;;32.85;;
11338;SDS011;5724;42.684;23.252;2022-10-12T03:42:49;41.40;;;32.65;;
11338;SDS011;5724;42.684;23.252;2022-10-12T03:45:15;40.35;;;33.03;;
11338;SDS011;5724;42.684;23.252;2022-10-12T03:47:40;38.38;;;33.08;;
11338;SDS011;5724;42.684;23.252;2022-10-12T03:50:06;42.20;;;32.67;;
11338;SDS011;5724;42.684;23.252;2022-10-12T03:52:31;37.50;;;33.40;;
11338;SDS011;5724;42.684;23.252;2022-10-12T03:54:57;45.28;;;34.45;;
11338;SDS011;5724;42.684;23.252;2022-10-12T03:57:22;38.58;;;33.80;;
11338;SDS011;5724;42.684;23.252;2022-10-12T03:59:48;41.33;;;34.03;;
11338;SDS011;5724;42.684;23.252;2022-10-12T04:02:13;36.47;;;32.15;;
11338;SDS011;5724;42.684;23.252;2022-10-12T04:04:39;36.15;;;31.88;;
11338;SDS011;5724;42.684;23.252;2022-10-12T04:07:04;36.63;;;31.58;;
11338;SDS011;5724;42.684;23.252;2022-10-12T04:09:30;40.97;;;33.58;;
11338;SDS011;5724;42.684;23.252;2022-10-12T04:11:56;48.13;;;39.33;;
11338;SDS011;5724;42.684;23.252;2022-10-12T04:14:21;48.15;;;39.30;;
11338;SDS011;5724;42.684;23.252;2022-10-12T04:16:47;42.08;;;34.60;;
11338;SDS011;5724;42.684;23.252;2022-10-12T04:19:13;46.30;;;35.53;;
11338;SDS011;5724;42.684;23.252;2022-10-12T04:21:38;44.90;;;34.00;;
11338;SDS011;5724;42.684;23.252;2022-10-12T04:24:04;42.97;;;35.00;;
11338;SDS011;5724;42.684;23.252;2022-10-12T04:26:30;42.03;;;35.42;;
11338;SDS011;5724;42.684;23.252;2022-10-12T04:28:55;45.22;;;35.85;;
11338;SDS011;5724;42.684;23.252;2022-10-12T04:31:21;46.28;;;35.28;;
11338;SDS011;5724;42.684;23.252;2022-10-12T04:33:46;44.83;;;34.92;;
11338;SDS011;5724;42.684;23.252;2022-10-12T04:36:12;46.53;;;36.33;;
11338;SDS011;5724;42.684;23.252;2022-10-12T04:38:37;45.22;;;37.35;;
11338;SDS011;5724;42.684;23.252;2022-10-12T04:41:03;49.40;;;38.83;;
11338;SDS011;5724;42.684;23.252;2022-10-12T04:43:28;43.40;;;35.80;;
11338;SDS011;5724;42.684;23.252;2022-10-12T04:45:57;42.75;;;35.65;;
11338;SDS011;5724;42.684;23.252;2022-10-12T04:48:24;47.00;;;36.97;;
11338;SDS011;5724;42.684;23.252;2022-10-12T04:50:50;45.60;;;35.03;;
11338;SDS011;5724;42.684;23.252;2022-10-12T04:53:16;44.75;;;36.20;;
11338;SDS011;5724;42.684;23.252;2022-10-12T04:55:42;42.30;;;36.13;;
11338;SDS011;5724;42.684;23.252;2022-10-12T04:58:07;47.08;;;37.85;;
11338;SDS011;5724;42.684;23.252;2022-10-12T05:00:32;47.50;;;37.65;;
11338;SDS011;5724;42.684;23.252;2022-10-12T05:02:58;40.17;;;35.88;;
11338;SDS011;5724;42.684;23.252;2022-10-12T05:05:23;45.08;;;34.85;;
11338;SDS011;5724;42.684;23.252;2022-10-12T05:07:49;38.28;;;34.13;;
11338;SDS011;5724;42.684;23.252;2022-10-12T05:10:14;40.72;;;33.53;;
11338;SDS011;5724;42.684;23.252;2022-10-12T05:12:40;40.03;;;33.35;;
11338;SDS011;5724;42.684;23.252;2022-10-12T05:15:07;42.33;;;33.28;;
11338;SDS011;5724;42.684;23.252;2022-10-12T05:17:33;41.15;;;33.17;;
11338;SDS011;5724;42.684;23.252;2022-10-12T05:19:58;38.60;;;32.75;;
11338;SDS011;5724;42.684;23.252;2022-10-12T05:22:23;39.35;;;32.97;;
11338;SDS011;5724;42.684;23.252;2022-10-12T05:24:49;38.45;;;33.70;;
11338;SDS011;5724;42.684;23.252;2022-10-12T05:27:14;41.45;;;34.67;;
11338;SDS011;5724;42.684;23.252;2022-10-12T05:29:40;38.30;;;33.25;;
11338;SDS011;5724;42.684;23.252;2022-10-12T05:32:05;38.28;;;32.47;;
11338;SDS011;5724;42.684;23.252;2022-10-12T05:34:31;40.45;;;32.67;;
11338;SDS011;5724;42.684;23.252;2022-10-12T05:36:56;38.28;;;32.38;;
11338;SDS011;5724;42.684;23.252;2022-10-12T05:39:22;40.22;;;32.83;;
11338;SDS011;5724;42.684;23.252;2022-10-12T05:41:48;37.38;;;33.20;;
11338;SDS011;5724;42.684;23.252;2022-10-12T05:44:13;38.47;;;32.00;;
11338;SDS011;5724;42.684;23.252;2022-10-12T05:46:38;39.97;;;32.22;;
11338;SDS011;5724;42.684;23.252;2022-10-12T05:49:04;44.65;;;34.03;;
11338;SDS011;5724;42.684;23.252;2022-10-12T05:51:30;42.40;;;34.22;;
11338;SDS011;5724;42.684;23.252;2022-10-12T05:53:56;48.08;;;35.95;;
11338;SDS011;5724;42.684;23.252;2022-10-12T05:56:21;46.08;;;35.45;;
11338;SDS011;5724;42.684;23.252;2022-10-12T05:58:47;41.60;;;35.05;;
11338;SDS011;5724;42.684;23.252;2022-10-12T06:01:12;44.67;;;33.83;;
11338;SDS011;5724;42.684;23.252;2022-10-12T06:03:38;44.80;;;37.10;;
11338;SDS011;5724;42.684;23.252;2022-10-12T06:06:03;42.55;;;35.40;;
11338;SDS011;5724;42.684;23.252;2022-10-12T06:08:31;42.92;;;35.92;;
11338;SDS011;5724;42.684;23.252;2022-10-12T06:10:57;39.17;;;34.88;;
11338;SDS011;5724;42.684;23.252;2022-10-12T06:13:23;37.20;;;33.13;;
11338;SDS011;5724;42.684;23.252;2022-10-12T06:15:49;44.00;;;33.97;;
11338;SDS011;5724;42.684;23.252;2022-10-12T06:18:15;45.85;;;33.58;;
11338;SDS011;5724;42.684;23.252;2022-10-12T06:20:45;39.80;;;32.67;;
11338;SDS011;5724;42.684;23.252;2022-10-12T06:23:11;38.70;;;32.75;;
11338;SDS011;5724;42.684;23.252;2022-10-12T06:25:37;43.40;;;31.73;;
11338;SDS011;5724;42.684;23.252;2022-10-12T06:28:02;36.83;;;30.13;;
11338;SDS011;5724;42.684;23.252;2022-10-12T06:30:28;32.75;;;28.98;;
11338;SDS011;5724;42.684;23.252;2022-10-12T06:32:53;32.63;;;29.15;;
11338;SDS011;5724;42.684;23.252;2022-10-12T06:35:19;35.10;;;28.63;;
11338;SDS011;5724;42.684;23.252;2022-10-12T06:37:51;36.42;;;30.25;;
11338;SDS011;5724;42.684;23.252;2022-10-12T06:40:17;38.10;;;30.35;;
11338;SDS011;5724;42.684;23.252;2022-10-12T06:42:43;39.20;;;30.38;;
11338;SDS011;5724;42.684;23.252;2022-10-12T06:45:09;34.17;;;27.80;;
11338;SDS011;5724;42.684;23.252;2022-10-12T06:47:35;31.08;;;27.58;;
11338;SDS011;5724;42.684;23.252;2022-10-12T06:50:00;35.20;;;28.80;;
11338;SDS011;5724;42.684;23.252;2022-10-12T06:52:26;37.45;;;29.40;;
11338;SDS011;5724;42.684;23.252;2022-10-12T06:54:51;35.38;;;29.00;;
11338;SDS011;5724;42.684;23.252;2022-10-12T06:57:17;30.80;;;27.27;;
11338;SDS011;5724;42.684;23.252;2022-10-12T06:59:42;33.72;;;27.05;;
11338;SDS011;5724;42.684;23.252;2022-10-12T07:02:08;31.30;;;27.83;;
11338;SDS011;5724;42.684;23.252;2022-10-12T07:04:35;31.27;;;27.60;;
11338;SDS011;5724;42.684;23.252;2022-10-12T07:07:01;32.60;;;28.55;;
11338;SDS011;5724;42.684;23.252;2022-10-12T07:09:26;32.67;;;28.95;;
11338;SDS011;5724;42.684;23.252;2022-10-12T07:11:52;37.60;;;29.00;;
11338;SDS011;5724;42.684;23.252;2022-10-12T07:14:18;32.33;;;26.88;;
11338;SDS011;5724;42.684;23.252;2022-10-12T07:16:43;33.75;;;27.98;;
11338;SDS011;5724;42.684;23.252;2022-10-12T07:19:09;32.58;;;28.83;;
11338;SDS011;5724;42.684;23.252;2022-10-12T07:21:34;31.10;;;27.73;;
11338;SDS011;5724;42.684;23.252;2022-10-12T07:24:00;35.63;;;30.38;;
11338;SDS011;5724;42.684;23.252;2022-10-12T07:26:25;33.15;;;29.58;;
11338;SDS011;5724;42.684;23.252;2022-10-12T07:28:51;34.83;;;29.27;;
11338;SDS011;5724;42.684;23.252;2022-10-12T07:31:16;35.17;;;28.98;;
11338;SDS011;5724;42.684;23.252;2022-10-12T07:33:41;32.30;;;28.48;;
11338;SDS011;5724;42.684;23.252;2022-10-12T07:36:07;32.40;;;28.30;;
11338;SDS011;5724;42.684;23.252;2022-10-12T07:38:33;31.33;;;28.00;;
11338;SDS011;5724;42.684;23.252;2022-10-12T07:40:59;32.08;;;28.60;;
11338;SDS011;5724;42.684;23.252;2022-10-12T07:43:26;31.45;;;28.00;;
11338;SDS011;5724;42.684;23.252;2022-10-12T07:45:52;36.58;;;27.70;;
11338;SDS011;5724;42.684;23.252;2022-10-12T07:48:18;34.08;;;29.38;;
11338;SDS011;5724;42.684;23.252;2022-10-12T07:50:44;33.97;;;28.30;;
11338;SDS011;5724;42.684;23.252;2022-10-12T07:53:09;35.72;;;29.10;;
11338;SDS011;5724;42.684;23.252;2022-10-12T07:55:35;34.42;;;29.30;;
11338;SDS011;5724;42.684;23.252;2022-10-12T07:58:00;33.38;;;27.35;;
11338;SDS011;5724;42.684;23.252;2022-10-12T08:00:26;33.05;;;29.55;;
11338;SDS011;5724;42.684;23.252;2022-10-12T08:02:53;36.65;;;29.92;;
11338;SDS011;5724;42.684;23.252;2022-10-12T08:05:19;38.58;;;30.92;;
11338;SDS011;5724;42.684;23.252;2022-10-12T08:07:45;31.33;;;27.77;;
11338;SDS011;5724;42.684;23.252;2022-10-12T08:10:12;31.23;;;27.85;;
11338;SDS011;5724;42.684;23.252;2022-10-12T08:12:37;32.35;;;27.48;;
11338;SDS011;5724;42.684;23.252;2022-10-12T08:15:03;30.95;;;27.73;;
11338;SDS011;5724;42.684;23.252;2022-10-12T08:17:29;38.63;;;28.70;;
11338;SDS011;5724;42.684;23.252;2022-10-12T08:19:54;37.08;;;29.25;;
11338;SDS011;5724;42.684;23.252;2022-10-12T08:22:20;31.77;;;26.98;;
11338;SDS011;5724;42.684;23.252;2022-10-12T08:24:45;34.20;;;29.05;;
11338;SDS011;5724;42.684;23.252;2022-10-12T08:27:11;37.22;;;28.90;;
11338;SDS011;5724;42.684;23.252;2022-10-12T08:29:36;37.28;;;28.10;;
11338;SDS011;5724;42.684;23.252;2022-10-12T08:32:03;38.45;;;29.73;;
11338;SDS011;5724;42.684;23.252;2022-10-12T08:34:28;33.40;;;28.75;;
11338;SDS011;5724;42.684;23.252;2022-10-12T08:36:54;35.80;;;31.10;;
11338;SDS011;5724;42.684;23.252;2022-10-12T08:39:20;38.22;;;31.42;;
11338;SDS011;5724;42.684;23.252;2022-10-12T08:44:17;41.05;;;30.50;;
11338;SDS011;5724;42.684;23.252;2022-10-12T08:47:12;38.45;;;30.77;;
11338;SDS011;5724;42.684;23.252;2022-10-12T08:49:43;41.50;;;32.03;;
11338;SDS011;5724;42.684;23.252;2022-10-12T08:57:48;25.65;;;23.13;;
11338;SDS011;5724;42.684;23.252;2022-10-12T09:00:13;27.10;;;19.35;;
11338;SDS011;5724;42.684;23.252;2022-10-12T09:05:28;21.80;;;18.17;;
11338;SDS011;5724;42.684;23.252;2022-10-12T09:08:13;22.70;;;17.85;;
11338;SDS011;5724;42.684;23.252;2022-10-12T09:14:04;22.20;;;17.33;;
11338;SDS011;5724;42.684;23.252;2022-10-12T09:16:33;22.02;;;16.40;;
11338;SDS011;5724;42.684;23.252;2022-10-12T09:19:08;20.27;;;16.83;;
11338;SDS011;5724;42.684;23.252;2022-10-12T09:21:41;17.73;;;15.60;;
11338;SDS011;5724;42.684;23.252;2022-10-12T09:24:13;22.00;;;17.90;;
11338;SDS011;5724;42.684;23.252;2022-10-12T09:26:43;23.30;;;17.58;;
11338;SDS011;5724;42.684;23.252;2022-10-12T09:29:19;20.88;;;16.35;;
11338;SDS011;5724;42.684;23.252;2022-10-12T09:34:34;17.60;;;15.70;;
11338;SDS011;5724;42.684;23.252;2022-10-12T09:37:00;15.82;;;14.23;;
11338;SDS011;5724;42.684;23.252;2022-10-12T09:39:34;15.52;;;14.15;;
11338;SDS011;5724;42.684;23.252;2022-10-12T09:42:02;16.50;;;14.80;;
11338;SDS011;5724;42.684;23.252;2022-10-12T09:49:45;18.25;;;16.40;;
11338;SDS011;5724;42.684;23.252;2022-10-12T09:52:14;17.65;;;16.00;;
11338;SDS011;5724;42.684;23.252;2022-10-12T09:54:47;16.63;;;15.15;;
11338;SDS011;5724;42.684;23.252;2022-10-12T09:57:35;16.80;;;15.07;;
11338;SDS011;5724;42.684;23.252;2022-10-12T10:00:06;20.27;;;15.63;;
11338;SDS011;5724;42.684;23.252;2022-10-12T10:02:49;17.85;;;14.95;;
11338;SDS011;5724;42.684;23.252;2022-10-12T10:07:50;19.20;;;15.75;;
11338;SDS011;5724;42.684;23.252;2022-10-12T10:12:55;19.70;;;16.45;;
11338;SDS011;5724;42.684;23.252;2022-10-12T10:15:27;18.88;;;16.17;;
11338;SDS011;5724;42.684;23.252;2022-10-12T10:18:02;22.60;;;17.13;;
11338;SDS011;5724;42.684;23.252;2022-10-12T10:20:49;17.70;;;15.88;;
11338;SDS011;5724;42.684;23.252;2022-10-12T10:23:25;17.55;;;15.48;;
11338;SDS011;5724;42.684;23.252;2022-10-12T10:25:58;20.58;;;16.15;;
11338;SDS011;5724;42.684;23.252;2022-10-12T10:28:32;17.13;;;15.63;;
11338;SDS011;5724;42.684;23.252;2022-10-12T10:31:00;16.13;;;14.75;;
11338;SDS011;5724;42.684;23.252;2022-10-12T10:33:31;16.00;;;14.52;;
11338;SDS011;5724;42.684;23.252;2022-10-12T10:41:19;15.48;;;13.85;;
11338;SDS011;5724;42.684;23.252;2022-10-12T10:43:50;14.23;;;13.10;;
11338;SDS011;5724;42.684;23.252;2022-10-12T10:46:20;14.98;;;13.65;;
11338;SDS011;5724;42.684;23.252;2022-10-12T10:48:56;13.80;;;12.70;;
11338;SDS011;5724;42.684;23.252;2022-10-12T10:56:46;15.13;;;13.60;;
11338;SDS011;5724;42.684;23.252;2022-10-12T10:59:23;15.10;;;13.75;;
11338;SDS011;5724;42.684;23.252;2022-10-12T11:02:01;15.30;;;14.05;;
11338;SDS011;5724;42.684;23.252;2022-10-12T11:04:36;16.73;;;15.15;;
11338;SDS011;5724;42.684;23.252;2022-10-12T11:07:11;16.75;;;14.57;;
11338;SDS011;5724;42.684;23.252;2022-10-12T11:09:45;15.80;;;14.23;;
11338;SDS011;5724;42.684;23.252;2022-10-12T11:14:44;15.38;;;14.00;;
11338;SDS011;5724;42.684;23.252;2022-10-12T11:17:16;16.75;;;14.82;;
11338;SDS011;5724;42.684;23.252;2022-10-12T11:19:51;14.98;;;13.60;;
11338;SDS011;5724;42.684;23.252;2022-10-12T11:22:31;16.67;;;14.02;;
11338;SDS011;5724;42.684;23.252;2022-10-12T11:27:45;13.40;;;12.45;;
11338;SDS011;5724;42.684;23.252;2022-10-12T11:30:12;13.95;;;12.60;;
11338;SDS011;5724;42.684;23.252;2022-10-12T11:32:59;14.68;;;13.43;;
11338;SDS011;5724;42.684;23.252;2022-10-12T11:35:37;15.15;;;13.80;;
11338;SDS011;5724;42.684;23.252;2022-10-12T11:38:07;14.77;;;13.35;;
11338;SDS011;5724;42.684;23.252;2022-10-12T11:43:29;14.32;;;13.13;;
11338;SDS011;5724;42.684;23.252;2022-10-12T11:46:01;14.82;;;13.38;;
11338;SDS011;5724;42.684;23.252;2022-10-12T11:48:33;13.73;;;12.70;;
11338;SDS011;5724;42.684;23.252;2022-10-12T11:51:04;14.32;;;13.23;;
11338;SDS011;5724;42.684;23.252;2022-10-12T11:53:34;15.48;;;13.43;;
11338;SDS011;5724;42.684;23.252;2022-10-12T11:58:59;14.65;;;13.45;;
11338;SDS011;5724;42.684;23.252;2022-10-12T12:09:20;16.23;;;13.48;;
11338;SDS011;5724;42.684;23.252;2022-10-12T12:12:08;14.65;;;13.38;;
11338;SDS011;5724;42.684;23.252;2022-10-12T12:19:51;12.52;;;11.48;;
11338;SDS011;5724;42.684;23.252;2022-10-12T12:22:22;12.52;;;11.55;;
11338;SDS011;5724;42.684;23.252;2022-10-12T12:27:34;12.40;;;11.35;;
11338;SDS011;5724;42.684;23.252;2022-10-12T12:30:04;12.10;;;11.00;;
11338;SDS011;5724;42.684;23.252;2022-10-12T12:32:58;13.13;;;11.15;;
11338;SDS011;5724;42.684;23.252;2022-10-12T12:38:04;12.73;;;11.77;;
11338;SDS011;5724;42.684;23.252;2022-10-12T12:40:30;12.52;;;11.63;;
11338;SDS011;5724;42.684;23.252;2022-10-12T12:45:59;14.05;;;12.70;;
11338;SDS011;5724;42.684;23.252;2022-10-12T12:51:02;14.05;;;12.48;;
11338;SDS011;5724;42.684;23.252;2022-10-12T12:53:33;13.68;;;12.38;;
11338;SDS011;5724;42.684;23.252;2022-10-12T12:56:02;14.23;;;12.88;;
11338;SDS011;5724;42.684;23.252;2022-10-12T13:01:27;13.85;;;12.52;;
11338;SDS011;5724;42.684;23.252;2022-10-12T13:18:05;14.27;;;12.98;;
11338;SDS011;5724;42.684;23.252;2022-10-12T13:20:54;15.05;;;13.55;;
11338;SDS011;5724;42.684;23.252;2022-10-12T13:23:22;14.65;;;13.35;;
11338;SDS011;5724;42.684;23.252;2022-10-12T13:25:51;14.30;;;13.05;;
11338;SDS011;5724;42.684;23.252;2022-10-12T13:28:22;14.35;;;12.95;;
11338;SDS011;5724;42.684;23.252;2022-10-12T13:30:58;15.25;;;13.75;;
11338;SDS011;5724;42.684;23.252;2022-10-12T13:33:35;15.05;;;13.70;;
11338;SDS011;5724;42.684;23.252;2022-10-12T13:36:16;14.77;;;13.38;;
11338;SDS011;5724;42.684;23.252;2022-10-12T13:38:45;15.00;;;13.40;;
11338;SDS011;5724;42.684;23.252;2022-10-12T13:41:13;16.35;;;13.90;;
11338;SDS011;5724;42.684;23.252;2022-10-12T13:43:57;15.63;;;14.32;;
11338;SDS011;5724;42.684;23.252;2022-10-12T13:49:33;15.60;;;14.13;;
11338;SDS011;5724;42.684;23.252;2022-10-12T13:54:40;14.70;;;13.40;;
11338;SDS011;5724;42.684;23.252;2022-10-12T13:59:44;15.88;;;14.50;;
11338;SDS011;5724;42.684;23.252;2022-10-12T14:02:23;15.15;;;13.85;;
11338;SDS011;5724;42.684;23.252;2022-10-12T14:04:54;15.10;;;13.85;;
11338;SDS011;5724;42.684;23.252;2022-10-12T14:07:26;14.93;;;13.73;;
11338;SDS011;5724;42.684;23.252;2022-10-12T14:09:57;17.83;;;14.65;;
11338;SDS011;5724;42.684;23.252;2022-10-12T14:12:25;15.32;;;14.05;;
11338;SDS011;5724;42.684;23.252;2022-10-12T14:14:54;15.27;;;13.95;;
11338;SDS011;5724;42.684;23.252;2022-10-12T14:17:20;15.73;;;14.27;;
11338;SDS011;5724;42.684;23.252;2022-10-12T14:19:47;16.42;;;14.85;;
11338;SDS011;5724;42.684;23.252;2022-10-12T14:22:33;16.23;;;14.60;;
11338;SDS011;5724;42.684;23.252;2022-10-12T14:25:19;16.38;;;14.80;;
11338;SDS011;5724;42.684;23.252;2022-10-12T14:27:56;16.73;;;15.13;;
11338;SDS011;5724;42.684;23.252;2022-10-12T14:30:27;17.85;;;16.23;;
11338;SDS011;5724;42.684;23.252;2022-10-12T14:32:55;17.50;;;15.80;;
11338;SDS011;5724;42.684;23.252;2022-10-12T14:35:38;16.05;;;14.65;;
11338;SDS011;5724;42.684;23.252;2022-10-12T14:44:11;16.63;;;15.23;;
11338;SDS011;5724;42.684;23.252;2022-10-12T14:46:39;17.25;;;14.77;;
11338;SDS011;5724;42.684;23.252;2022-10-12T14:51:57;16.05;;;14.38;;
11338;SDS011;5724;42.684;23.252;2022-10-12T14:54:23;16.80;;;15.13;;
11338;SDS011;5724;42.684;23.252;2022-10-12T14:56:49;15.77;;;14.40;;
11338;SDS011;5724;42.684;23.252;2022-10-12T14:59:14;16.05;;;14.43;;
11338;SDS011;5724;42.684;23.252;2022-10-12T15:01:40;16.20;;;14.68;;
11338;SDS011;5724;42.684;23.252;2022-10-12T15:04:07;15.60;;;14.20;;
11338;SDS011;5724;42.684;23.252;2022-10-12T15:06:36;16.55;;;14.93;;
11338;SDS011;5724;42.684;23.252;2022-10-12T15:09:01;26.52;;;23.83;;
11338;SDS011;5724;42.684;23.252;2022-10-12T15:11:27;27.20;;;24.60;;
11338;SDS011;5724;42.684;23.252;2022-10-12T15:13:52;37.92;;;34.03;;
11338;SDS011;5724;42.684;23.252;2022-10-12T15:16:25;25.20;;;22.67;;
11338;SDS011;5724;42.684;23.252;2022-10-12T15:18:51;21.05;;;19.02;;
11338;SDS011;5724;42.684;23.252;2022-10-12T15:21:17;19.95;;;17.92;;
11338;SDS011;5724;42.684;23.252;2022-10-12T15:23:43;61.58;;;45.72;;
11338;SDS011;5724;42.684;23.252;2022-10-12T15:26:13;40.47;;;32.53;;
11338;SDS011;5724;42.684;23.252;2022-10-12T15:28:40;31.67;;;25.38;;
11338;SDS011;5724;42.684;23.252;2022-10-12T15:31:09;32.08;;;27.17;;
11338;SDS011;5724;42.684;23.252;2022-10-12T15:33:37;19.67;;;17.90;;
11338;SDS011;5724;42.684;23.252;2022-10-12T15:36:04;20.40;;;17.55;;
11338;SDS011;5724;42.684;23.252;2022-10-12T15:38:30;19.38;;;17.58;;
11338;SDS011;5724;42.684;23.252;2022-10-12T15:40:55;25.95;;;23.23;;
11338;SDS011;5724;42.684;23.252;2022-10-12T15:43:22;24.73;;;20.17;;
11338;SDS011;5724;42.684;23.252;2022-10-12T15:45:48;47.42;;;35.10;;
11338;SDS011;5724;42.684;23.252;2022-10-12T15:48:14;21.92;;;19.17;;
11338;SDS011;5724;42.684;23.252;2022-10-12T15:50:40;23.63;;;21.10;;
11338;SDS011;5724;42.684;23.252;2022-10-12T15:53:09;26.40;;;23.48;;
11338;SDS011;5724;42.684;23.252;2022-10-12T15:55:38;23.77;;;21.13;;
11338;SDS011;5724;42.684;23.252;2022-10-12T15:58:03;26.38;;;23.13;;
11338;SDS011;5724;42.684;23.252;2022-10-12T16:00:28;25.92;;;23.10;;
11338;SDS011;5724;42.684;23.252;2022-10-12T16:02:57;29.50;;;25.45;;
11338;SDS011;5724;42.684;23.252;2022-10-12T16:05:25;23.90;;;21.48;;
11338;SDS011;5724;42.684;23.252;2022-10-12T16:07:56;39.03;;;29.40;;
11338;SDS011;5724;42.684;23.252;2022-10-12T16:10:23;49.95;;;37.58;;
11338;SDS011;5724;42.684;23.252;2022-10-12T16:12:52;26.27;;;23.40;;
11338;SDS011;5724;42.684;23.252;2022-10-12T16:15:21;26.85;;;20.05;;
11338;SDS011;5724;42.684;23.252;2022-10-12T16:17:50;21.08;;;18.98;;
11338;SDS011;5724;42.684;23.252;2022-10-12T16:20:16;24.40;;;21.92;;
11338;SDS011;5724;42.684;23.252;2022-10-12T16:22:42;21.17;;;18.55;;
11338;SDS011;5724;42.684;23.252;2022-10-12T16:25:09;17.67;;;16.17;;
11338;SDS011;5724;42.684;23.252;2022-10-12T16:27:36;19.60;;;17.35;;
11338;SDS011;5724;42.684;23.252;2022-10-12T16:30:03;19.77;;;17.83;;
11338;SDS011;5724;42.684;23.252;2022-10-12T16:32:30;20.15;;;18.25;;
11338;SDS011;5724;42.684;23.252;2022-10-12T16:34:56;19.33;;;17.48;;
11338;SDS011;5724;42.684;23.252;2022-10-12T16:37:21;20.48;;;18.20;;
11338;SDS011;5724;42.684;23.252;2022-10-12T16:39:46;19.55;;;17.30;;
11338;SDS011;5724;42.684;23.252;2022-10-12T16:42:12;21.00;;;18.90;;
11338;SDS011;5724;42.684;23.252;2022-10-12T16:44:37;21.25;;;17.75;;